LSZA Informações do Aeroporto

Informações da Pista
Pista 01 Comprimento 4429 ft Largura 98 ft
Elevação 896 ft Limite 361 ft Heading 19
Pista 19 Comprimento 4429 ft Largura 98 ft
Elevação 915 ft Limite 672 ft Heading 199
Frequências do Aeroporto
Tipo ATIS Nome ATIS Frequência 121.175 MHZ
Tipo GND Nome GND Frequência 121.775 MHZ
Tipo TWR Nome TWR Frequência 120.25 MHZ
Navaids do Aeroporto
Informações meteorológicas do aeroporto e NOTAM
ADDS - METARS form results

(1158 UTC 22 August 2019)
Data provider http://aviationweather.gov/metar/data/
 
METAR text: LSZA 221150Z VRB02KT CAVOK 25/17 Q1022 NOSIG
Conditions at: LSZA (LUGANO (PVT/AUT), CH) observed 1150 UTC 22 August 2019
Temperature: 25.0°C (77°F)
Dewpoint: 17.0°C (63°F) [RH = 61%]
Pressure (altimeter): 30.18 inches Hg (1022.0 mb)
Winds: variable direction winds at 2 MPH (2 knots; 1.0 m/s)
Visibility: 6 or more miles (10+ km)
Ceiling: ceiling and visibility are OK
Clouds: unknown
Weather: no significant weather observed at this time

METAR text: LSZA 221120Z VRB02KT CAVOK 24/17 Q1023 NOSIG
Conditions at: LSZA (LUGANO (PVT/AUT), CH) observed 1120 UTC 22 August 2019
Temperature: 24.0°C (75°F)
Dewpoint: 17.0°C (63°F) [RH = 65%]
Pressure (altimeter): 30.21 inches Hg (1023.0 mb)
Winds: variable direction winds at 2 MPH (2 knots; 1.0 m/s)
Visibility: 6 or more miles (10+ km)
Ceiling: ceiling and visibility are OK
Clouds: unknown
Weather: no significant weather observed at this time

Forecast for: LSZA (LUGANO (PVT/AUT), CH)
Text: TAF LSZA 221125Z 2212/2221 VRB03KT CAVOK
Forecast period: 1200 to 2100 UTC 22 August 2019
Forecast type: FROM: standard forecast or significant change
Winds: variable direction winds at 3 MPH (3 knots; 1.5 m/s)
Visibility: 6 or more miles 10+ km)
Ceiling: unknown
Clouds: missing
Weather: NSW  (no significant weather)
Text: BECMG 2212/2215 9999 FEW050
Forecast period: 1200 to 2100 UTC 22 August 2019
Forecast type: BECOMING: Conditions expected to become as follows by 1500 UTC 22 August 2019
Winds: variable direction winds at 3 MPH (3 knots; 1.5 m/s)
Visibility: 6 or more miles 10+ km)
Ceiling: at least 12,000 feet AGL
Clouds: few clouds at 5000 feet AGL
Weather: NSW  (no significant weather)